RJCW/WKJ METAR and TAF weather

Enter ICAO airport designator
Station Type Date Time Source
RJCW METAR 2020/09/27 02:00 UTC NOAA

RJCW 270200Z 06015KT 8000 -SHRA FEW007 SCT010 BKN020 12/11 Q1015


Station Type Date Time Source
RJCW Decoded METAR 2020/09/27 02:00 UTC NOAA

Wakkanai Airport, Japan (RJCW) 45-24N 141-48E 11M
Sep 26, 2020 - 10:00 PM EDT / 2020.09.27 0200 UTC
Wind: from the ENE (060 degrees) at 17 MPH (15 KT):0
Visibility: 4 mile(s):0
Sky conditions: mostly cloudy
Weather: light rain showers
Temperature: 53 F (12 C)
Dew Point: 51 F (11 C)
Relative Humidity: 93%
Pressure (altimeter): 29.97 in. Hg (1015 hPa)
ob: RJCW 270200Z 06015KT 8000 -SHRA FEW007 SCT010 BKN020 12/11 Q1015
cycle: 2

Station Type Date Time Source
RJCW TAF UTC NOAA

Error!

Example: see airport list